Terminal Aerodrome Forecast
Issued by NWS

Home | Current Version | Previous Version | Text Only | Print | Product List | Glossary On
Versions: 1 2 3 4 5 6 7 8 9 10 11 12 13 14 15 16 17 18 19 20 21
000
FTUS42 KFFC 182320
TAFFTY
TAF
KFTY 182320Z 1900/1924 00000KT P6SM SCT100 BKN250
     FM191400 11005KT P6SM BKN015
     FM191700 14006KT P6SM BKN030
     FM192000 14007KT P6SM SCT035 BKN060=

USA.gov is the U.S. government's official web portal to all federal, state and local government web resources and services.